createdAt,value
2024-04-06T00:00:43.392Z,6.30
2024-04-06T00:03:31.271Z,5.50
2024-04-06T00:05:59.584Z,5.40
2024-04-06T00:08:27.887Z,5.70
2024-04-06T00:10:55.835Z,5.80
2024-04-06T00:13:23.576Z,5.60
2024-04-06T00:15:51.565Z,5.10
2024-04-06T00:18:19.358Z,4.90
2024-04-06T00:20:47.302Z,4.40
2024-04-06T00:23:15.238Z,5.10
2024-04-06T00:25:43.267Z,4.60
2024-04-06T00:28:11.064Z,5.30
2024-04-06T00:30:38.934Z,5.00
2024-04-06T00:33:06.715Z,5.20
2024-04-06T00:35:34.601Z,5.10
2024-04-06T00:38:02.422Z,4.70
2024-04-06T00:40:30.244Z,4.90
2024-04-06T00:42:58.000Z,4.30
2024-04-06T00:45:25.966Z,4.40
2024-04-06T00:47:54.282Z,4.00
2024-04-06T00:50:22.768Z,4.20
2024-04-06T00:52:50.608Z,4.20
2024-04-06T00:55:18.949Z,4.00
2024-04-06T00:57:47.534Z,4.30
2024-04-06T01:00:15.898Z,4.80
2024-04-06T01:02:43.833Z,5.00
2024-04-06T01:05:11.908Z,5.80
2024-04-06T01:07:43.753Z,5.80
2024-04-06T01:10:11.723Z,6.00
2024-04-06T01:12:39.812Z,6.10
2024-04-06T01:15:08.041Z,6.00
2024-04-06T01:17:36.152Z,6.60
2024-04-06T01:20:07.985Z,6.00
2024-04-06T01:22:35.924Z,6.00
2024-04-06T01:25:05.489Z,6.20
2024-04-06T01:27:33.397Z,5.40
2024-04-06T01:30:02.092Z,5.60
2024-04-06T01:32:29.912Z,5.30
2024-04-06T01:34:58.211Z,5.50
2024-04-06T01:37:26.081Z,5.30
2024-04-06T01:39:53.841Z,6.50
2024-04-06T01:42:21.610Z,5.60
2024-04-06T01:44:49.419Z,5.20
2024-04-06T01:47:17.213Z,5.10
2024-04-06T01:49:45.084Z,5.60
2024-04-06T01:52:12.914Z,5.60
2024-04-06T01:54:41.092Z,5.30
2024-04-06T01:57:09.066Z,5.00
2024-04-06T01:59:40.315Z,4.90
2024-04-06T02:02:08.196Z,5.60
2024-04-06T02:04:36.299Z,5.80
2024-04-06T02:07:05.802Z,5.90
2024-04-06T02:09:33.912Z,5.50
2024-04-06T02:12:01.836Z,5.50
2024-04-06T02:14:29.678Z,5.00
2024-04-06T02:16:57.674Z,5.40
2024-04-06T02:19:25.416Z,4.90
2024-04-06T02:21:53.260Z,5.80
2024-04-06T02:24:21.484Z,4.90
2024-04-06T02:26:49.899Z,5.00
2024-04-06T02:29:19.489Z,5.30
2024-04-06T02:31:47.745Z,4.80
2024-04-06T02:34:15.628Z,5.20
2024-04-06T02:36:43.473Z,5.10
2024-04-06T02:39:11.707Z,5.50
2024-04-06T02:41:39.739Z,4.90
2024-04-06T02:44:07.703Z,5.10
2024-04-06T02:46:35.550Z,5.60
2024-04-06T02:49:03.342Z,5.70
2024-04-06T02:51:31.341Z,5.10
2024-04-06T02:53:59.100Z,5.00
2024-04-06T02:56:26.966Z,4.80
2024-04-06T02:58:54.883Z,4.80
2024-04-06T03:01:22.698Z,4.80
2024-04-06T03:03:50.543Z,4.70
2024-04-06T03:06:18.286Z,4.20
2024-04-06T03:08:46.062Z,4.00
2024-04-06T03:11:14.017Z,3.50
2024-04-06T03:13:41.795Z,3.70
2024-04-06T03:16:09.545Z,3.70
2024-04-06T03:18:37.459Z,3.40
2024-04-06T03:21:05.750Z,4.20
2024-04-06T03:23:33.644Z,4.50
2024-04-06T03:26:01.473Z,5.40
2024-04-06T03:28:30.251Z,5.10
2024-04-06T03:31:00.010Z,5.80
2024-04-06T03:33:27.852Z,5.70
2024-04-06T03:35:56.048Z,5.50
2024-04-06T03:38:23.861Z,5.90
2024-04-06T03:40:51.720Z,5.90
2024-04-06T03:43:19.615Z,6.30
2024-04-06T03:45:48.240Z,6.20
2024-04-06T03:48:15.992Z,6.00
2024-04-06T03:50:43.879Z,6.00
2024-04-06T03:53:12.530Z,5.80
2024-04-06T03:55:40.733Z,5.80
2024-04-06T03:58:09.108Z,5.80
2024-04-06T04:00:37.387Z,6.00
2024-04-06T04:03:05.517Z,5.80
2024-04-06T04:05:33.602Z,5.70
2024-04-06T04:08:01.501Z,5.70
2024-04-06T04:10:29.507Z,6.40
2024-04-06T04:12:58.897Z,6.40
2024-04-06T04:15:26.726Z,6.00
2024-04-06T04:17:55.041Z,6.20
2024-04-06T04:20:22.812Z,6.20
2024-04-06T04:22:50.969Z,6.00
2024-04-06T04:25:18.731Z,6.00
2024-04-06T04:27:46.901Z,6.10
2024-04-06T04:30:16.853Z,6.30
2024-04-06T04:32:44.815Z,6.50
2024-04-06T04:35:12.968Z,6.20
2024-04-06T04:37:40.799Z,6.50
2024-04-06T04:40:09.650Z,5.60
2024-04-06T04:42:38.598Z,6.10
2024-04-06T04:45:14.939Z,6.40
2024-04-06T04:47:43.377Z,6.10
2024-04-06T04:50:11.333Z,5.80
2024-04-06T04:52:39.279Z,6.00
2024-04-06T04:55:07.276Z,5.90
2024-04-06T04:57:35.219Z,6.10
2024-04-06T05:00:04.073Z,6.60
2024-04-06T05:02:32.066Z,6.50
2024-04-06T05:05:00.195Z,7.00
2024-04-06T05:07:28.485Z,6.80
2024-04-06T05:09:56.305Z,6.50
2024-04-06T05:12:24.173Z,7.00
2024-04-06T05:14:52.142Z,6.80
2024-04-06T05:17:19.988Z,6.50
2024-04-06T05:19:47.769Z,7.20
2024-04-06T05:22:15.800Z,7.00
2024-04-06T05:24:43.859Z,7.80
2024-04-06T05:27:12.123Z,7.00
2024-04-06T05:29:39.962Z,7.20
2024-04-06T05:32:07.804Z,7.30
2024-04-06T05:34:35.734Z,7.70
2024-04-06T05:37:03.747Z,8.60
2024-04-06T05:39:31.603Z,7.80
2024-04-06T05:41:59.484Z,7.60
2024-04-06T05:44:27.322Z,8.00
2024-04-06T05:46:55.433Z,7.70
2024-04-06T05:49:23.361Z,7.90
2024-04-06T05:51:51.139Z,8.60
2024-04-06T05:54:18.976Z,8.60
2024-04-06T05:56:47.279Z,9.70
2024-04-06T05:59:15.461Z,8.20
2024-04-06T06:01:43.224Z,8.30
2024-04-06T06:04:11.647Z,8.30
2024-04-06T06:06:39.474Z,8.80
2024-04-06T06:09:07.249Z,7.20
2024-04-06T06:11:35.030Z,7.80
2024-04-06T06:14:02.927Z,8.20
2024-04-06T06:16:30.843Z,8.10
2024-04-06T06:18:58.770Z,7.40
2024-04-06T06:21:26.451Z,7.20
2024-04-06T06:23:54.729Z,7.60
2024-04-06T06:26:22.446Z,7.50
2024-04-06T06:28:50.325Z,8.30
2024-04-06T06:31:18.130Z,6.80
2024-04-06T06:33:45.881Z,6.80
2024-04-06T06:41:17.125Z,5.90
2024-04-06T06:43:44.987Z,6.30
2024-04-06T06:46:12.980Z,5.40
2024-04-06T06:48:40.872Z,6.20
2024-04-06T06:51:08.651Z,5.90
2024-04-06T06:53:36.501Z,6.30
2024-04-06T06:56:04.627Z,7.30
2024-04-06T06:58:32.773Z,7.70
2024-04-06T07:01:00.642Z,12.40
2024-04-06T07:03:28.458Z,14.20
2024-04-06T07:05:56.713Z,14.30
2024-04-06T07:08:24.831Z,11.60
2024-04-06T07:10:52.920Z,10.60
2024-04-06T07:13:20.841Z,10.50
2024-04-06T07:15:48.618Z,11.90
2024-04-06T07:18:16.406Z,10.70
2024-04-06T07:20:44.233Z,10.40
2024-04-06T07:23:12.123Z,9.10
2024-04-06T07:25:39.856Z,7.80
2024-04-06T07:28:07.831Z,8.50
2024-04-06T07:30:36.070Z,6.50
2024-04-06T07:33:04.107Z,7.70
2024-04-06T07:35:32.028Z,9.80
2024-04-06T07:37:59.892Z,9.40
2024-04-06T07:40:27.783Z,9.70
2024-04-06T07:42:55.644Z,9.40
2024-04-06T07:45:23.396Z,10.00
2024-04-06T07:47:52.875Z,11.20
2024-04-06T07:50:20.848Z,11.50
2024-04-06T07:52:49.064Z,11.60
2024-04-06T07:55:17.233Z,10.00
2024-04-06T07:57:45.892Z,9.60
2024-04-06T08:00:14.868Z,10.40
2024-04-06T08:02:43.079Z,10.60
2024-04-06T08:05:10.866Z,9.40
2024-04-06T08:07:38.829Z,9.80
2024-04-06T08:10:17.999Z,10.90
2024-04-06T08:12:46.721Z,10.10
2024-04-06T08:15:15.633Z,9.30
2024-04-06T08:17:54.875Z,8.80
2024-04-06T08:20:22.823Z,9.20
2024-04-06T08:22:50.532Z,9.60
2024-04-06T08:25:18.323Z,10.60
2024-04-06T08:27:46.708Z,11.60
2024-04-06T08:30:15.297Z,11.60
2024-04-06T08:32:44.571Z,10.90
2024-04-06T08:35:20.996Z,10.00
2024-04-06T08:37:48.935Z,10.60
2024-04-06T08:40:17.526Z,10.60
2024-04-06T08:42:46.029Z,10.30
2024-04-06T08:45:14.046Z,9.80
2024-04-06T08:47:42.719Z,10.00
2024-04-06T08:50:11.807Z,9.60
2024-04-06T08:52:40.455Z,9.70
2024-04-06T08:55:10.182Z,10.20
2024-04-06T08:57:40.565Z,9.70
2024-04-06T09:00:11.112Z,9.70
2024-04-06T09:02:39.755Z,10.60
2024-04-06T09:05:07.867Z,10.30
2024-04-06T09:07:35.982Z,10.30
2024-04-06T09:10:04.103Z,9.70
2024-04-06T09:12:31.937Z,10.10
2024-04-06T09:15:00.946Z,9.90
2024-04-06T09:17:30.373Z,9.00
2024-04-06T09:19:58.248Z,10.00
2024-04-06T09:22:26.173Z,9.40
2024-04-06T09:24:55.669Z,9.20
2024-04-06T09:27:23.540Z,9.50
2024-04-06T09:29:51.451Z,9.30
2024-04-06T09:32:24.644Z,9.20
2024-04-06T09:34:54.134Z,9.10
2024-04-06T09:37:37.146Z,9.00
2024-04-06T09:40:08.136Z,8.40
2024-04-06T09:42:37.607Z,9.30
2024-04-06T09:45:07.043Z,9.80
2024-04-06T09:47:36.202Z,9.80
2024-04-06T09:50:05.407Z,10.60
2024-04-06T09:52:33.612Z,12.40
2024-04-06T09:55:03.265Z,13.60
2024-04-06T09:57:31.412Z,14.90
2024-04-06T10:00:05.613Z,15.60
2024-04-06T10:02:34.856Z,15.50
2024-04-06T10:05:07.005Z,15.80
2024-04-06T10:07:35.736Z,16.90
2024-04-06T10:10:05.533Z,17.40
2024-04-06T10:12:44.716Z,18.50
2024-04-06T10:15:13.393Z,16.70
2024-04-06T10:17:53.665Z,17.30
2024-04-06T10:20:25.494Z,19.00
2024-04-06T10:23:00.608Z,18.30
2024-04-06T10:25:37.919Z,16.40
2024-04-06T10:28:10.875Z,16.70
2024-04-06T10:30:40.036Z,15.00
2024-04-06T10:33:08.619Z,15.70
2024-04-06T10:35:36.947Z,16.20
2024-04-06T10:38:07.659Z,17.40
2024-04-06T10:40:36.722Z,19.00
2024-04-06T10:43:07.256Z,18.20
2024-04-06T10:45:35.206Z,21.10
2024-04-06T10:48:03.910Z,19.80
2024-04-06T10:50:32.319Z,20.50
2024-04-06T10:53:01.492Z,22.80
2024-04-06T10:55:29.926Z,20.70
2024-04-06T10:57:57.730Z,19.80
2024-04-06T11:00:27.576Z,20.80
2024-04-06T11:03:02.301Z,21.00
2024-04-06T11:05:31.223Z,20.90
2024-04-06T11:07:59.052Z,21.20
2024-04-06T11:10:27.916Z,21.30
2024-04-06T11:12:57.296Z,21.90
2024-04-06T11:15:27.129Z,24.60
2024-04-06T11:17:55.935Z,23.80
2024-04-06T11:20:24.556Z,22.40
2024-04-06T11:22:52.467Z,22.00
2024-04-06T11:25:21.488Z,23.30
2024-04-06T11:27:51.019Z,24.30
2024-04-06T11:30:20.508Z,24.00
2024-04-06T11:32:53.162Z,25.00
2024-04-06T11:35:21.053Z,23.90
2024-04-06T11:37:48.775Z,23.70
2024-04-06T11:40:16.699Z,23.60
2024-04-06T11:42:44.512Z,23.20
2024-04-06T11:45:12.336Z,24.30
2024-04-06T11:47:42.378Z,25.30
2024-04-06T11:50:10.534Z,22.60
2024-04-06T11:52:39.914Z,23.40
2024-04-06T11:55:07.855Z,23.10
2024-04-06T11:57:36.355Z,22.40
2024-04-06T12:00:07.122Z,21.50
2024-04-06T12:02:35.148Z,21.20
2024-04-06T12:05:03.035Z,22.00
2024-04-06T12:07:31.566Z,20.50
2024-04-06T12:09:59.979Z,19.50
2024-04-06T12:12:27.876Z,18.10
2024-04-06T12:14:55.727Z,18.90
2024-04-06T12:17:28.396Z,17.90
2024-04-06T12:19:56.493Z,18.60
2024-04-06T12:22:24.760Z,17.00
2024-04-06T12:24:53.405Z,17.50
2024-04-06T12:27:21.489Z,17.80
2024-04-06T12:29:50.340Z,17.50
2024-04-06T12:32:18.390Z,17.60
2024-04-06T12:34:46.255Z,16.90
2024-04-06T12:37:15.319Z,17.00
2024-04-06T12:39:43.640Z,16.20
2024-04-06T12:42:11.630Z,16.70
2024-04-06T12:44:39.546Z,18.30
2024-04-06T12:47:07.394Z,16.90
2024-04-06T12:49:35.266Z,17.70
2024-04-06T12:52:03.326Z,18.30
2024-04-06T12:54:33.077Z,18.40
2024-04-06T12:57:19.877Z,19.50
2024-04-06T12:59:47.694Z,19.50
2024-04-06T13:02:15.538Z,18.40
2024-04-06T13:04:43.422Z,18.50
2024-04-06T13:07:11.356Z,20.40
2024-04-06T13:09:39.284Z,20.20
2024-04-06T13:12:07.318Z,21.00
2024-04-06T13:14:35.227Z,21.60
2024-04-06T13:17:03.015Z,18.70
2024-04-06T13:19:30.986Z,19.70
2024-04-06T13:21:59.290Z,21.30
2024-04-06T13:24:27.114Z,24.00
2024-04-06T13:26:54.944Z,26.00
2024-04-06T13:29:23.251Z,24.00
2024-04-06T13:31:53.931Z,23.90
2024-04-06T13:34:22.836Z,24.30
2024-04-06T13:36:50.634Z,24.60
2024-04-06T13:39:21.043Z,25.40
2024-04-06T13:41:48.842Z,25.70
2024-04-06T13:44:16.834Z,25.00
2024-04-06T13:46:44.643Z,23.80
2024-04-06T13:49:12.706Z,23.10
2024-04-06T13:51:40.995Z,23.00
2024-04-06T13:54:08.872Z,24.30
2024-04-06T13:56:36.712Z,23.90
2024-04-06T13:59:04.638Z,22.40
2024-04-06T14:01:32.555Z,22.80
2024-04-06T14:04:00.646Z,22.10
2024-04-06T14:06:28.573Z,22.70
2024-04-06T14:08:56.544Z,22.80
2024-04-06T14:11:34.541Z,23.20
2024-04-06T14:14:03.974Z,27.30
2024-04-06T14:16:31.890Z,25.20
2024-04-06T14:18:59.815Z,26.80
2024-04-06T14:21:27.855Z,26.60
2024-04-06T14:23:56.008Z,25.80
2024-04-06T14:26:23.880Z,27.30
2024-04-06T14:28:52.687Z,27.40
2024-04-06T14:31:20.538Z,29.20
2024-04-06T14:33:48.888Z,30.00
2024-04-06T14:36:16.765Z,29.50
2024-04-06T14:38:45.242Z,28.60
2024-04-06T14:41:13.112Z,29.30
2024-04-06T14:43:40.944Z,27.60
2024-04-06T14:46:08.802Z,27.20
2024-04-06T14:48:36.719Z,28.00
2024-04-06T14:51:04.944Z,27.20
2024-04-06T14:53:32.774Z,27.50
2024-04-06T14:56:00.657Z,26.20
2024-04-06T14:58:28.417Z,27.70
2024-04-06T15:00:56.545Z,25.50
2024-04-06T15:03:24.381Z,24.80
2024-04-06T15:05:53.231Z,24.50
2024-04-06T15:08:21.444Z,23.30
2024-04-06T15:10:49.612Z,23.70
2024-04-06T15:13:19.488Z,23.00
2024-04-06T15:15:47.651Z,23.40
2024-04-06T15:18:15.451Z,24.10
2024-04-06T15:20:43.186Z,25.00
2024-04-06T15:23:12.094Z,23.70
2024-04-06T15:25:40.496Z,24.20
2024-04-06T15:28:08.455Z,23.20
2024-04-06T15:30:36.292Z,23.60
2024-04-06T15:33:04.277Z,22.20
2024-04-06T15:35:32.276Z,23.30
2024-04-06T15:38:00.151Z,24.60
2024-04-06T15:40:28.125Z,26.90
2024-04-06T15:42:56.139Z,24.60
2024-04-06T15:45:23.960Z,24.30
2024-04-06T15:47:51.964Z,24.10
2024-04-06T15:50:19.843Z,23.30
2024-04-06T15:52:47.640Z,21.80
2024-04-06T15:55:19.137Z,21.50
2024-04-06T15:57:47.595Z,20.20
2024-04-06T16:00:15.635Z,21.60
2024-04-06T16:02:43.454Z,20.70
2024-04-06T16:05:11.272Z,21.10
2024-04-06T16:07:39.969Z,20.60
2024-04-06T16:10:08.168Z,20.80
2024-04-06T16:12:36.384Z,22.10
2024-04-06T16:15:06.975Z,19.80
2024-04-06T16:17:35.156Z,22.10
2024-04-06T16:20:04.160Z,20.10
2024-04-06T16:22:33.088Z,20.40
2024-04-06T16:25:01.202Z,20.20
2024-04-06T16:27:29.190Z,20.60
2024-04-06T16:29:57.152Z,20.80
2024-04-06T16:32:25.084Z,19.50
2024-04-06T16:34:52.839Z,20.40
2024-04-06T16:37:20.956Z,19.80
2024-04-06T16:39:48.727Z,18.60
2024-04-06T16:42:16.660Z,20.10
2024-04-06T16:44:44.441Z,20.00
2024-04-06T16:47:12.533Z,19.80
2024-04-06T16:49:40.327Z,20.70
2024-04-06T16:52:08.655Z,20.90
2024-04-06T16:54:36.464Z,20.10
2024-04-06T16:57:04.407Z,20.00
2024-04-06T16:59:34.620Z,20.20
2024-04-06T17:02:05.021Z,20.30
2024-04-06T17:04:34.202Z,20.10
2024-04-06T17:07:02.213Z,20.00
2024-04-06T17:09:32.726Z,19.80
2024-04-06T17:12:00.579Z,18.70
2024-04-06T17:14:29.014Z,18.30
2024-04-06T17:16:57.178Z,19.30
2024-04-06T17:19:25.156Z,19.10
2024-04-06T17:21:52.934Z,18.70
2024-04-06T17:24:20.771Z,19.40
2024-04-06T17:26:48.558Z,19.60
2024-04-06T17:29:16.568Z,20.00
2024-04-06T17:31:44.637Z,21.30
2024-04-06T17:34:12.657Z,19.70
2024-04-06T17:36:40.572Z,19.70
2024-04-06T17:39:13.687Z,19.90
2024-04-06T17:41:41.714Z,19.40
2024-04-06T17:44:10.424Z,20.50
2024-04-06T17:46:38.363Z,20.20
2024-04-06T17:49:06.181Z,20.10
2024-04-06T17:51:34.810Z,19.60
2024-04-06T17:54:02.729Z,19.00
2024-04-06T17:56:30.565Z,18.60
2024-04-06T17:58:58.680Z,19.60
2024-04-06T18:01:27.100Z,18.40
2024-04-06T18:03:55.042Z,18.50
2024-04-06T18:06:25.828Z,18.50
2024-04-06T18:08:53.843Z,17.70
2024-04-06T18:11:21.633Z,17.80
2024-04-06T18:13:49.426Z,18.00
2024-04-06T18:16:18.962Z,17.40
2024-04-06T18:18:48.076Z,18.40
2024-04-06T18:21:18.709Z,17.90
2024-04-06T18:23:46.874Z,18.70
2024-04-06T18:26:14.781Z,19.40
2024-04-06T18:28:42.769Z,18.20
2024-04-06T18:31:11.069Z,19.80
2024-04-06T18:33:42.000Z,23.90
2024-04-06T18:36:09.729Z,26.10
2024-04-06T18:38:37.613Z,69.80
2024-04-06T18:41:05.362Z,93.70
2024-04-06T18:43:33.315Z,164.60
2024-04-06T18:46:01.124Z,53.30
2024-04-06T18:48:29.248Z,73.90
2024-04-06T18:50:57.656Z,59.30
2024-04-06T18:53:25.529Z,35.20
2024-04-06T18:55:53.343Z,23.00
2024-04-06T18:58:21.424Z,28.70
2024-04-06T19:00:49.299Z,30.10
2024-04-06T19:03:17.658Z,17.00
2024-04-06T19:05:45.547Z,19.30
2024-04-06T19:08:13.421Z,18.00
2024-04-06T19:10:41.377Z,18.70
2024-04-06T19:13:09.382Z,18.10
2024-04-06T19:15:37.447Z,16.80
2024-04-06T19:18:05.555Z,16.60
2024-04-06T19:20:34.105Z,16.10
2024-04-06T19:23:02.434Z,17.40
2024-04-06T19:25:30.492Z,17.20
2024-04-06T19:27:58.294Z,18.50
2024-04-06T19:30:26.148Z,18.70
2024-04-06T19:32:54.420Z,19.50
2024-04-06T19:35:22.480Z,17.30
2024-04-06T19:37:50.228Z,18.70
2024-04-06T19:40:18.144Z,23.10
2024-04-06T19:42:45.930Z,17.40
2024-04-06T19:45:13.731Z,14.60
2024-04-06T19:47:41.760Z,14.70
2024-04-06T19:50:09.704Z,16.20
2024-04-06T19:52:37.762Z,12.70
2024-04-06T19:55:05.838Z,11.90
2024-04-06T19:57:34.132Z,10.40
2024-04-06T20:00:02.392Z,10.00
2024-04-06T20:02:30.363Z,10.40
2024-04-06T20:04:58.211Z,9.00
2024-04-06T20:07:25.957Z,9.00
2024-04-06T20:09:53.751Z,9.00
2024-04-06T20:12:21.793Z,8.50
2024-04-06T20:14:52.584Z,8.00
2024-04-06T20:17:20.573Z,8.10
2024-04-06T20:19:48.920Z,8.50
2024-04-06T20:22:35.950Z,9.20
2024-04-06T20:25:22.427Z,9.20
2024-04-06T20:27:50.319Z,10.00
2024-04-06T20:30:18.071Z,9.60
2024-04-06T20:32:45.987Z,8.70
2024-04-06T20:35:13.777Z,9.50
2024-04-06T20:37:41.700Z,8.70
2024-04-06T20:40:11.238Z,9.80
2024-04-06T20:42:40.347Z,8.60
2024-04-06T20:45:09.263Z,9.30
2024-04-06T20:47:36.994Z,11.10
2024-04-06T20:50:05.606Z,10.50
2024-04-06T20:52:34.901Z,13.10
2024-04-06T20:55:02.780Z,11.10
2024-04-06T20:57:30.672Z,11.80
2024-04-06T20:59:58.856Z,13.40
2024-04-06T21:02:26.808Z,13.50
2024-04-06T21:04:54.575Z,14.40
2024-04-06T21:07:22.652Z,14.90
2024-04-06T21:09:50.575Z,13.90
2024-04-06T21:12:18.672Z,13.60
2024-04-06T21:14:46.753Z,14.60
2024-04-06T21:17:14.736Z,13.60
2024-04-06T21:19:42.526Z,13.60
2024-04-06T21:22:10.411Z,12.80
2024-04-06T21:24:38.343Z,13.30
2024-04-06T21:27:06.173Z,14.00
2024-04-06T21:29:34.011Z,13.10
2024-04-06T21:32:01.824Z,12.90
2024-04-06T21:34:29.670Z,13.00
2024-04-06T21:36:57.526Z,13.40
2024-04-06T21:39:25.757Z,12.90
2024-04-06T21:41:53.650Z,12.40
2024-04-06T21:44:21.433Z,12.00
2024-04-06T21:46:49.132Z,12.10
2024-04-06T21:49:17.049Z,11.90
2024-04-06T21:51:44.830Z,11.40
2024-04-06T21:54:12.653Z,11.50
2024-04-06T21:56:40.425Z,11.20
2024-04-06T21:59:08.668Z,12.10
2024-04-06T22:01:37.254Z,11.40
2024-04-06T22:04:05.555Z,11.80
2024-04-06T22:06:33.312Z,11.30
2024-04-06T22:09:01.093Z,11.70
2024-04-06T22:11:29.914Z,11.50
2024-04-06T22:13:57.817Z,10.20
2024-04-06T22:16:25.603Z,10.40
2024-04-06T22:18:53.504Z,10.30
2024-04-06T22:21:21.332Z,10.10
2024-04-06T22:23:49.198Z,10.50
2024-04-06T22:26:17.011Z,10.60
2024-04-06T22:28:44.796Z,10.90
2024-04-06T22:31:14.074Z,11.20
2024-04-06T22:33:42.392Z,9.70
2024-04-06T22:36:10.256Z,10.40
2024-04-06T22:38:38.117Z,10.60
2024-04-06T22:41:06.942Z,10.30
2024-04-06T22:43:34.878Z,9.80
2024-04-06T22:46:02.981Z,9.50
2024-04-06T22:48:31.237Z,9.90
2024-04-06T22:50:59.131Z,10.10
2024-04-06T22:53:27.027Z,9.40
2024-04-06T22:55:54.824Z,9.30
2024-04-06T22:58:22.730Z,9.00
2024-04-06T23:00:50.542Z,8.30
2024-04-06T23:03:18.288Z,8.60
2024-04-06T23:05:46.046Z,7.20
2024-04-06T23:08:13.825Z,6.60
2024-04-06T23:10:42.382Z,6.90
2024-04-06T23:13:10.213Z,7.60
2024-04-06T23:15:38.262Z,6.60
2024-04-06T23:18:06.019Z,6.40
2024-04-06T23:20:35.163Z,6.80
2024-04-06T23:23:03.292Z,6.70
2024-04-06T23:25:31.218Z,7.10
2024-04-06T23:27:59.255Z,6.00
2024-04-06T23:30:27.042Z,6.50
2024-04-06T23:32:54.904Z,5.90
2024-04-06T23:35:22.873Z,6.30
2024-04-06T23:37:52.341Z,6.40
2024-04-06T23:40:22.121Z,6.50
2024-04-06T23:42:49.922Z,6.00
2024-04-06T23:45:17.697Z,6.00
2024-04-06T23:47:45.488Z,6.20
2024-04-06T23:50:13.261Z,5.40
2024-04-06T23:52:41.058Z,6.50
2024-04-06T23:55:09.462Z,5.40
2024-04-06T23:57:37.195Z,5.60
